sensor_id;sensor_type;location;lat;lon;timestamp;pressure;altitude;pressure_sealevel;temperature;humidity
18755;BME280;35061;47.664;9.166;2023-09-19T00:00:48;101386.23;;;17.67;92.66
18755;BME280;35061;47.664;9.166;2023-09-19T00:03:16;101398.10;;;17.69;92.80
18755;BME280;35061;47.664;9.166;2023-09-19T00:05:44;101390.68;;;17.74;92.55
18755;BME280;35061;47.664;9.166;2023-09-19T00:08:13;101397.28;;;17.74;92.16
18755;BME280;35061;47.664;9.166;2023-09-19T00:10:44;101394.38;;;17.74;91.79
18755;BME280;35061;47.664;9.166;2023-09-19T00:13:12;101396.23;;;17.71;91.63
18755;BME280;35061;47.664;9.166;2023-09-19T00:15:45;101392.02;;;17.72;91.70
18755;BME280;35061;47.664;9.166;2023-09-19T00:18:18;101388.59;;;17.74;91.92
18755;BME280;35061;47.664;9.166;2023-09-19T00:20:49;101393.59;;;17.74;91.71
18755;BME280;35061;47.664;9.166;2023-09-19T00:23:19;101395.98;;;17.69;91.70
18755;BME280;35061;47.664;9.166;2023-09-19T00:25:48;101409.67;;;17.75;92.26
18755;BME280;35061;47.664;9.166;2023-09-19T00:28:16;101404.64;;;17.75;91.72
18755;BME280;35061;47.664;9.166;2023-09-19T00:30:46;101418.34;;;17.75;91.90
18755;BME280;35061;47.664;9.166;2023-09-19T00:33:23;101422.82;;;17.76;91.87
18755;BME280;35061;47.664;9.166;2023-09-19T00:35:53;101417.03;;;17.76;91.98
18755;BME280;35061;47.664;9.166;2023-09-19T00:38:22;101425.73;;;17.76;91.68
18755;BME280;35061;47.664;9.166;2023-09-19T00:40:55;101418.08;;;17.72;91.61
18755;BME280;35061;47.664;9.166;2023-09-19T00:43:26;101421.77;;;17.73;91.77
18755;BME280;35061;47.664;9.166;2023-09-19T00:45:56;101416.74;;;17.74;91.76
18755;BME280;35061;47.664;9.166;2023-09-19T00:48:25;101425.17;;;17.71;91.61
18755;BME280;35061;47.664;9.166;2023-09-19T00:50:57;101421.55;;;17.65;90.90
18755;BME280;35061;47.664;9.166;2023-09-19T00:53:26;101425.73;;;17.64;91.04
18755;BME280;35061;47.664;9.166;2023-09-19T00:55:55;101421.80;;;17.62;91.10
18755;BME280;35061;47.664;9.166;2023-09-19T00:58:24;101431.26;;;17.62;91.36
18755;BME280;35061;47.664;9.166;2023-09-19T01:00:52;101431.81;;;17.61;91.38
18755;BME280;35061;47.664;9.166;2023-09-19T01:03:22;101430.73;;;17.64;90.98
18755;BME280;35061;47.664;9.166;2023-09-19T01:05:50;101415.76;;;17.60;90.90
18755;BME280;35061;47.664;9.166;2023-09-19T01:08:18;101424.95;;;17.64;92.36
18755;BME280;35061;47.664;9.166;2023-09-19T01:11:12;101426.26;;;17.68;91.21
18755;BME280;35061;47.664;9.166;2023-09-19T01:13:47;101430.48;;;17.67;90.27
18755;BME280;35061;47.664;9.166;2023-09-19T01:21:50;101431.81;;;17.61;89.46
18755;BME280;35061;47.664;9.166;2023-09-19T01:29:48;101436.78;;;17.60;89.82
18755;BME280;35061;47.664;9.166;2023-09-19T01:32:18;101443.13;;;17.64;88.75
18755;BME280;35061;47.664;9.166;2023-09-19T01:34:56;101438.09;;;17.65;89.08
18755;BME280;35061;47.664;9.166;2023-09-19T01:37:27;101442.84;;;17.62;88.75
18755;BME280;35061;47.664;9.166;2023-09-19T01:40:00;101445.22;;;17.58;88.29
18755;BME280;35061;47.664;9.166;2023-09-19T01:42:58;101447.87;;;17.56;88.79
18755;BME280;35061;47.664;9.166;2023-09-19T01:45:33;101453.10;;;17.57;89.26
18755;BME280;35061;47.664;9.166;2023-09-19T01:51:11;101451.83;;;17.53;88.84
18755;BME280;35061;47.664;9.166;2023-09-19T01:53:55;101456.02;;;17.52;88.83
18755;BME280;35061;47.664;9.166;2023-09-19T01:56:42;101455.75;;;17.55;89.88
18755;BME280;35061;47.664;9.166;2023-09-19T01:59:15;101450.23;;;17.57;89.02
18755;BME280;35061;47.664;9.166;2023-09-19T02:01:45;101444.44;;;17.57;89.14
18755;BME280;35061;47.664;9.166;2023-09-19T02:04:13;101450.23;;;17.57;89.13
18755;BME280;35061;47.664;9.166;2023-09-19T02:06:42;101454.73;;;17.53;88.92
18755;BME280;35061;47.664;9.166;2023-09-19T02:09:09;101450.78;;;17.50;89.22
18755;BME280;35061;47.664;9.166;2023-09-19T02:11:37;101454.18;;;17.49;89.21
18755;BME280;35061;47.664;9.166;2023-09-19T02:14:06;101474.98;;;17.47;89.42
18755;BME280;35061;47.664;9.166;2023-09-19T02:16:36;101467.88;;;17.54;89.91
18755;BME280;35061;47.664;9.166;2023-09-19T02:19:05;101467.06;;;17.53;89.32
18755;BME280;35061;47.664;9.166;2023-09-19T02:21:33;101471.55;;;17.54;89.91
18755;BME280;35061;47.664;9.166;2023-09-19T02:24:01;101473.12;;;17.50;89.48
18755;BME280;35061;47.664;9.166;2023-09-19T02:26:29;101474.20;;;17.47;89.54
18755;BME280;35061;47.664;9.166;2023-09-19T02:28:57;101476.02;;;17.44;89.63
18755;BME280;35061;47.664;9.166;2023-09-19T02:31:25;101483.38;;;17.39;89.89
18755;BME280;35061;47.664;9.166;2023-09-19T02:33:53;101478.15;;;17.38;89.90
18755;BME280;35061;47.664;9.166;2023-09-19T02:36:20;101488.41;;;17.33;89.94
18755;BME280;35061;47.664;9.166;2023-09-19T02:38:49;101483.64;;;17.30;90.01
18755;BME280;35061;47.664;9.166;2023-09-19T02:41:17;101479.20;;;17.29;90.19
18755;BME280;35061;47.664;9.166;2023-09-19T02:43:45;101478.94;;;17.27;90.27
18755;BME280;35061;47.664;9.166;2023-09-19T02:46:13;101486.55;;;17.24;90.36
18755;BME280;35061;47.664;9.166;2023-09-19T02:48:42;101478.41;;;17.23;90.58
18755;BME280;35061;47.664;9.166;2023-09-19T02:51:10;101479.72;;;17.22;91.21
18755;BME280;35061;47.664;9.166;2023-09-19T02:53:38;101486.29;;;17.22;90.98
18755;BME280;35061;47.664;9.166;2023-09-19T02:56:07;101488.41;;;17.22;90.99
18755;BME280;35061;47.664;9.166;2023-09-19T02:58:35;101495.22;;;17.19;nan
18755;BME280;35061;47.664;9.166;2023-09-19T03:01:10;101500.74;;;17.22;91.02
18755;BME280;35061;47.664;9.166;2023-09-19T03:03:40;101502.58;;;17.20;90.81
18755;BME280;35061;47.664;9.166;2023-09-19T03:06:08;101499.18;;;17.21;91.13
18755;BME280;35061;47.664;9.166;2023-09-19T03:08:40;101489.98;;;17.23;91.02
18755;BME280;35061;47.664;9.166;2023-09-19T03:11:09;101499.99;;;17.33;91.96
18755;BME280;35061;47.664;9.166;2023-09-19T03:13:39;101490.25;;;17.36;90.68
18755;BME280;35061;47.664;9.166;2023-09-19T03:16:08;101489.98;;;17.34;90.64
18755;BME280;35061;47.664;9.166;2023-09-19T03:18:36;101474.45;;;17.32;90.73
18755;BME280;35061;47.664;9.166;2023-09-19T03:21:04;101489.17;;;17.34;90.85
18755;BME280;35061;47.664;9.166;2023-09-19T03:23:32;101488.94;;;17.37;90.88
18755;BME280;35061;47.664;9.166;2023-09-19T03:26:00;101485.51;;;17.39;90.76
18755;BME280;35061;47.664;9.166;2023-09-19T03:28:28;101476.29;;;17.35;90.61
18755;BME280;35061;47.664;9.166;2023-09-19T03:31:05;101476.55;;;17.31;90.71
18755;BME280;35061;47.664;9.166;2023-09-19T03:33:34;101478.67;;;17.30;90.33
18755;BME280;35061;47.664;9.166;2023-09-19T03:36:02;101473.15;;;17.27;90.56
18755;BME280;35061;47.664;9.166;2023-09-19T03:38:34;101477.59;;;17.28;90.91
18755;BME280;35061;47.664;9.166;2023-09-19T03:41:03;101475.77;;;17.25;90.91
18755;BME280;35061;47.664;9.166;2023-09-19T03:43:34;101477.86;;;17.24;90.49
18755;BME280;35061;47.664;9.166;2023-09-19T03:46:02;101481.29;;;17.28;91.14
18755;BME280;35061;47.664;9.166;2023-09-19T03:48:32;101483.16;;;17.32;90.78
18755;BME280;35061;47.664;9.166;2023-09-19T03:51:01;101492.63;;;17.32;90.86
18755;BME280;35061;47.664;9.166;2023-09-19T03:53:30;101496.04;;;17.30;90.75
18755;BME280;35061;47.664;9.166;2023-09-19T03:55:58;101492.08;;;17.28;90.65
18755;BME280;35061;47.664;9.166;2023-09-19T03:58:27;101486.55;;;17.30;90.81
18755;BME280;35061;47.664;9.166;2023-09-19T04:00:56;101482.07;;;17.29;90.58
18755;BME280;35061;47.664;9.166;2023-09-19T04:03:25;101476.84;;;17.22;90.23
18755;BME280;35061;47.664;9.166;2023-09-19T04:06:02;101473.64;;;17.20;90.58
18755;BME280;35061;47.664;9.166;2023-09-19T04:08:30;101479.72;;;17.16;90.58
18755;BME280;35061;47.664;9.166;2023-09-19T04:10:58;101489.98;;;17.17;90.86
18755;BME280;35061;47.664;9.166;2023-09-19T04:13:26;101479.98;;;17.18;90.73
18755;BME280;35061;47.664;9.166;2023-09-19T04:15:54;101478.94;;;17.15;90.66
18755;BME280;35061;47.664;9.166;2023-09-19T04:18:22;101480.99;;;17.15;90.58
18755;BME280;35061;47.664;9.166;2023-09-19T04:20:51;101479.16;;;17.12;90.60
18755;BME280;35061;47.664;9.166;2023-09-19T04:23:19;101489.43;;;17.13;90.81
18755;BME280;35061;47.664;9.166;2023-09-19T04:25:50;101489.98;;;17.11;90.80
18755;BME280;35061;47.664;9.166;2023-09-19T04:28:18;101491.55;;;17.12;90.81
18755;BME280;35061;47.664;9.166;2023-09-19T04:30:46;101496.52;;;17.12;90.87
18755;BME280;35061;47.664;9.166;2023-09-19T04:33:14;101497.34;;;17.12;91.02
18755;BME280;35061;47.664;9.166;2023-09-19T04:35:42;101503.88;;;17.13;90.97
18755;BME280;35061;47.664;9.166;2023-09-19T04:38:10;101499.44;;;17.12;91.15
18755;BME280;35061;47.664;9.166;2023-09-19T04:40:39;101500.74;;;17.11;90.88
18755;BME280;35061;47.664;9.166;2023-09-19T04:43:07;101510.23;;;17.11;90.84
18755;BME280;35061;47.664;9.166;2023-09-19T04:45:38;101516.02;;;17.11;90.86
18755;BME280;35061;47.664;9.166;2023-09-19T04:48:07;101519.68;;;17.12;90.68
18755;BME280;35061;47.664;9.166;2023-09-19T04:50:42;101513.89;;;17.12;90.67
18755;BME280;35061;47.664;9.166;2023-09-19T04:53:10;101518.63;;;17.09;90.68
18755;BME280;35061;47.664;9.166;2023-09-19T04:55:38;101528.12;;;17.15;91.43
18755;BME280;35061;47.664;9.166;2023-09-19T04:58:06;101527.85;;;17.13;90.92
18755;BME280;35061;47.664;9.166;2023-09-19T05:00:36;101525.73;;;17.14;90.96
18755;BME280;35061;47.664;9.166;2023-09-19T05:03:07;101526.77;;;17.11;90.96
18755;BME280;35061;47.664;9.166;2023-09-19T05:05:36;101529.69;;;17.11;90.91
18755;BME280;35061;47.664;9.166;2023-09-19T05:08:06;101522.82;;;17.08;90.84
18755;BME280;35061;47.664;9.166;2023-09-19T05:10:36;101528.61;;;17.08;90.70
18755;BME280;35061;47.664;9.166;2023-09-19T05:13:07;101537.30;;;17.08;90.90
18755;BME280;35061;47.664;9.166;2023-09-19T05:15:35;101541.26;;;17.05;90.61
18755;BME280;35061;47.664;9.166;2023-09-19T05:18:04;101552.77;;;16.99;90.74
18755;BME280;35061;47.664;9.166;2023-09-19T05:20:36;101551.76;;;17.02;90.77
18755;BME280;35061;47.664;9.166;2023-09-19T05:23:07;101550.98;;;17.02;90.72
18755;BME280;35061;47.664;9.166;2023-09-19T05:25:40;101546.49;;;17.01;90.82
18755;BME280;35061;47.664;9.166;2023-09-19T05:28:10;101541.72;;;16.98;90.56
18755;BME280;35061;47.664;9.166;2023-09-19T05:30:39;101550.19;;;17.01;90.37
18755;BME280;35061;47.664;9.166;2023-09-19T05:33:08;101558.85;;;17.01;90.75
18755;BME280;35061;47.664;9.166;2023-09-19T05:35:36;101555.98;;;17.01;90.77
18755;BME280;35061;47.664;9.166;2023-09-19T05:38:09;101558.04;;;16.95;90.63
18755;BME280;35061;47.664;9.166;2023-09-19T05:40:37;101567.03;;;17.03;91.09
18755;BME280;35061;47.664;9.166;2023-09-19T05:43:06;101567.03;;;17.03;91.10
18755;BME280;35061;47.664;9.166;2023-09-19T05:45:35;101556.23;;;17.04;90.83
18755;BME280;35061;47.664;9.166;2023-09-19T05:48:11;101579.65;;;17.06;90.78
18755;BME280;35061;47.664;9.166;2023-09-19T05:50:42;101588.61;;;17.08;90.49
18755;BME280;35061;47.664;9.166;2023-09-19T05:53:10;101595.15;;;17.08;90.55
18755;BME280;35061;47.664;9.166;2023-09-19T05:55:42;101588.35;;;17.11;90.70
18755;BME280;35061;47.664;9.166;2023-09-19T05:58:11;101591.26;;;17.11;90.37
18755;BME280;35061;47.664;9.166;2023-09-19T06:00:42;101591.26;;;17.11;90.25
18755;BME280;35061;47.664;9.166;2023-09-19T06:03:12;101594.92;;;17.18;90.54
18755;BME280;35061;47.664;9.166;2023-09-19T06:05:41;101590.45;;;17.16;90.26
18755;BME280;35061;47.664;9.166;2023-09-19T06:08:09;101602.31;;;17.19;90.36
18755;BME280;35061;47.664;9.166;2023-09-19T06:10:37;101593.91;;;17.21;90.37
18755;BME280;35061;47.664;9.166;2023-09-19T06:13:05;101601.79;;;17.20;90.21
18755;BME280;35061;47.664;9.166;2023-09-19T06:15:33;101611.80;;;17.19;90.23
18755;BME280;35061;47.664;9.166;2023-09-19T06:18:04;101617.84;;;17.27;90.63
18755;BME280;35061;47.664;9.166;2023-09-19T06:20:32;101623.11;;;17.28;90.39
18755;BME280;35061;47.664;9.166;2023-09-19T06:23:02;101619.68;;;17.24;90.89
18755;BME280;35061;47.664;9.166;2023-09-19T06:25:30;101617.06;;;17.21;91.46
18755;BME280;35061;47.664;9.166;2023-09-19T06:27:59;101619.64;;;17.13;92.11
18755;BME280;35061;47.664;9.166;2023-09-19T06:30:27;101617.55;;;17.08;92.07
18755;BME280;35061;47.664;9.166;2023-09-19T06:32:58;101623.34;;;17.08;92.35
18755;BME280;35061;47.664;9.166;2023-09-19T06:35:27;101621.73;;;17.01;92.80
18755;BME280;35061;47.664;9.166;2023-09-19T06:37:57;101627.20;;;16.99;93.15
18755;BME280;35061;47.664;9.166;2023-09-19T06:40:25;101621.73;;;17.01;93.75
18755;BME280;35061;47.664;9.166;2023-09-19T06:42:53;101618.04;;;17.00;93.96
18755;BME280;35061;47.664;9.166;2023-09-19T06:45:22;101624.62;;;17.01;93.85
18755;BME280;35061;47.664;9.166;2023-09-19T06:47:51;101623.83;;;17.00;93.72
18755;BME280;35061;47.664;9.166;2023-09-19T06:50:21;101633.84;;;17.05;93.68
18755;BME280;35061;47.664;9.166;2023-09-19T06:52:54;101638.31;;;17.06;93.73
18755;BME280;35061;47.664;9.166;2023-09-19T06:55:22;101636.98;;;17.07;93.68
18755;BME280;35061;47.664;9.166;2023-09-19T06:57:55;101635.44;;;17.12;93.67
18755;BME280;35061;47.664;9.166;2023-09-19T07:00:23;101639.39;;;17.14;93.58
18755;BME280;35061;47.664;9.166;2023-09-19T07:03:02;101639.39;;;17.14;93.04
18755;BME280;35061;47.664;9.166;2023-09-19T07:05:40;101639.66;;;17.16;93.04
18755;BME280;35061;47.664;9.166;2023-09-19T07:08:09;101641.23;;;17.18;92.72
18755;BME280;35061;47.664;9.166;2023-09-19T07:10:41;101646.00;;;17.21;92.54
18755;BME280;35061;47.664;9.166;2023-09-19T07:13:16;101652.84;;;17.23;92.54
18755;BME280;35061;47.664;9.166;2023-09-19T07:15:45;101656.53;;;17.24;92.37
18755;BME280;35061;47.664;9.166;2023-09-19T07:18:18;101655.74;;;17.29;92.37
18755;BME280;35061;47.664;9.166;2023-09-19T07:20:46;101663.40;;;17.32;92.35
18755;BME280;35061;47.664;9.166;2023-09-19T07:23:21;101671.02;;;17.35;92.31
18755;BME280;35061;47.664;9.166;2023-09-19T07:25:50;101670.23;;;17.35;91.66
18755;BME280;35061;47.664;9.166;2023-09-19T07:28:18;101665.23;;;17.35;91.62
18755;BME280;35061;47.664;9.166;2023-09-19T07:30:46;101666.02;;;17.36;91.45
18755;BME280;35061;47.664;9.166;2023-09-19T07:33:14;101668.40;;;17.37;91.58
18755;BME280;35061;47.664;9.166;2023-09-19T07:35:45;101676.84;;;17.41;91.13
18755;BME280;35061;47.664;9.166;2023-09-19T07:38:14;101681.05;;;17.46;90.93
18755;BME280;35061;47.664;9.166;2023-09-19T07:40:43;101673.96;;;17.47;90.04
18755;BME280;35061;47.664;9.166;2023-09-19T07:43:11;101678.70;;;17.50;90.08
18755;BME280;35061;47.664;9.166;2023-09-19T07:45:39;101686.35;;;17.53;89.52
18755;BME280;35061;47.664;9.166;2023-09-19T07:48:07;101681.09;;;17.57;89.29
18755;BME280;35061;47.664;9.166;2023-09-19T07:50:42;101678.73;;;17.67;89.04
18755;BME280;35061;47.664;9.166;2023-09-19T07:53:11;101673.50;;;17.77;87.53
18755;BME280;35061;47.664;9.166;2023-09-19T07:55:43;101662.97;;;17.85;88.06
18755;BME280;35061;47.664;9.166;2023-09-19T07:58:11;101672.45;;;17.91;87.43
18755;BME280;35061;47.664;9.166;2023-09-19T08:00:41;101674.84;;;17.98;87.59
18755;BME280;35061;47.664;9.166;2023-09-19T08:03:09;101674.61;;;18.08;87.68
18755;BME280;35061;47.664;9.166;2023-09-19T08:05:44;101664.84;;;18.17;87.54
18755;BME280;35061;47.664;9.166;2023-09-19T08:08:13;101677.23;;;18.23;86.77
18755;BME280;35061;47.664;9.166;2023-09-19T08:10:42;101670.88;;;18.24;86.06
18755;BME280;35061;47.664;9.166;2023-09-19T08:13:11;101675.37;;;18.25;85.47
18755;BME280;35061;47.664;9.166;2023-09-19T08:15:45;101679.88;;;18.32;85.67
18755;BME280;35061;47.664;9.166;2023-09-19T08:18:14;101665.62;;;18.40;85.85
18755;BME280;35061;47.664;9.166;2023-09-19T08:20:43;101670.33;;;18.49;85.42
18755;BME280;35061;47.664;9.166;2023-09-19T08:23:14;101669.80;;;18.56;84.84
18755;BME280;35061;47.664;9.166;2023-09-19T08:25:41;101685.37;;;18.59;83.45
18755;BME280;35061;47.664;9.166;2023-09-19T08:28:09;101682.46;;;18.59;82.62
18755;BME280;35061;47.664;9.166;2023-09-19T08:30:40;101685.86;;;18.63;82.87
18755;BME280;35061;47.664;9.166;2023-09-19T08:33:08;101694.30;;;18.66;82.54
18755;BME280;35061;47.664;9.166;2023-09-19T08:35:37;101693.52;;;18.66;79.30
18755;BME280;35061;47.664;9.166;2023-09-19T08:38:07;101695.64;;;18.65;80.14
18755;BME280;35061;47.664;9.166;2023-09-19T08:40:38;101691.42;;;18.61;79.51
18755;BME280;35061;47.664;9.166;2023-09-19T08:43:10;101686.12;;;18.65;78.98
18755;BME280;35061;47.664;9.166;2023-09-19T08:45:38;101687.95;;;18.68;80.23
18755;BME280;35061;47.664;9.166;2023-09-19T08:48:17;101697.44;;;18.74;80.37
18755;BME280;35061;47.664;9.166;2023-09-19T08:51:06;101702.96;;;18.83;79.64
18755;BME280;35061;47.664;9.166;2023-09-19T08:53:42;101696.09;;;18.87;77.53
18755;BME280;35061;47.664;9.166;2023-09-19T08:56:14;101709.80;;;18.97;79.44
18755;BME280;35061;47.664;9.166;2023-09-19T08:58:57;101700.84;;;19.01;77.02
18755;BME280;35061;47.664;9.166;2023-09-19T09:01:28;101700.84;;;19.07;76.92
18755;BME280;35061;47.664;9.166;2023-09-19T09:03:57;101709.24;;;19.10;77.06
18755;BME280;35061;47.664;9.166;2023-09-19T09:06:26;101708.20;;;19.14;76.17
18755;BME280;35061;47.664;9.166;2023-09-19T09:08:56;101703.12;;;19.20;76.79
18755;BME280;35061;47.664;9.166;2023-09-19T09:11:24;101712.88;;;19.28;76.92
18755;BME280;35061;47.664;9.166;2023-09-19T09:13:55;101705.94;;;19.37;76.40
18755;BME280;35061;47.664;9.166;2023-09-19T09:16:25;101701.46;;;19.42;76.17
18755;BME280;35061;47.664;9.166;2023-09-19T09:18:53;101709.11;;;19.45;74.36
18755;BME280;35061;47.664;9.166;2023-09-19T09:21:25;101716.99;;;19.50;75.86
18755;BME280;35061;47.664;9.166;2023-09-19T09:23:53;101711.70;;;19.48;74.41
18755;BME280;35061;47.664;9.166;2023-09-19T09:26:54;101703.55;;;19.47;74.23
18755;BME280;35061;47.664;9.166;2023-09-19T09:29:45;101719.09;;;19.55;74.40
18755;BME280;35061;47.664;9.166;2023-09-19T09:32:30;101714.87;;;19.56;72.70
18755;BME280;35061;47.664;9.166;2023-09-19T09:35:03;101710.06;;;19.59;73.40
18755;BME280;35061;47.664;9.166;2023-09-19T09:37:37;101715.84;;;19.64;74.69
18755;BME280;35061;47.664;9.166;2023-09-19T09:40:06;101711.59;;;19.71;74.18
18755;BME280;35061;47.664;9.166;2023-09-19T09:42:43;101711.01;;;19.78;74.90
18755;BME280;35061;47.664;9.166;2023-09-19T09:45:19;101712.28;;;19.83;72.96
18755;BME280;35061;47.664;9.166;2023-09-19T09:47:56;101701.27;;;19.76;72.27
18755;BME280;35061;47.664;9.166;2023-09-19T09:52:56;101708.66;;;19.77;72.16
18755;BME280;35061;47.664;9.166;2023-09-19T09:55:57;101705.45;;;19.80;73.05
18755;BME280;35061;47.664;9.166;2023-09-19T09:58:26;101707.80;;;19.82;71.17
18755;BME280;35061;47.664;9.166;2023-09-19T10:00:57;101700.97;;;19.79;71.78
18755;BME280;35061;47.664;9.166;2023-09-19T10:03:35;101705.41;;;19.86;72.32
18755;BME280;35061;47.664;9.166;2023-09-19T10:06:13;101705.68;;;19.94;72.63
18755;BME280;35061;47.664;9.166;2023-09-19T10:09:03;101701.69;;;19.91;70.14
18755;BME280;35061;47.664;9.166;2023-09-19T10:11:34;101702.21;;;19.96;71.85
18755;BME280;35061;47.664;9.166;2023-09-19T10:14:08;101706.98;;;19.93;72.33
18755;BME280;35061;47.664;9.166;2023-09-19T10:16:48;101713.82;;;19.96;72.42
18755;BME280;35061;47.664;9.166;2023-09-19T10:19:23;101713.30;;;19.91;72.40
18755;BME280;35061;47.664;9.166;2023-09-19T10:21:54;101712.25;;;19.94;73.01
18755;BME280;35061;47.664;9.166;2023-09-19T10:24:25;101717.29;;;19.94;73.29
18755;BME280;35061;47.664;9.166;2023-09-19T10:26:55;101718.07;;;19.94;73.24
18755;BME280;35061;47.664;9.166;2023-09-19T10:29:24;101719.41;;;19.88;73.10
18755;BME280;35061;47.664;9.166;2023-09-19T10:31:54;101717.58;;;19.85;72.82
18755;BME280;35061;47.664;9.166;2023-09-19T10:34:26;101718.92;;;19.84;73.35
18755;BME280;35061;47.664;9.166;2023-09-19T10:36:55;101727.39;;;19.82;73.78
18755;BME280;35061;47.664;9.166;2023-09-19T10:39:23;101715.45;;;19.85;74.02
18755;BME280;35061;47.664;9.166;2023-09-19T10:41:53;101713.59;;;19.88;74.42
18755;BME280;35061;47.664;9.166;2023-09-19T10:44:26;101725.46;;;19.90;74.07
18755;BME280;35061;47.664;9.166;2023-09-19T10:46:57;101716.73;;;19.96;74.41
18755;BME280;35061;47.664;9.166;2023-09-19T10:49:25;101724.87;;;20.03;74.08
18755;BME280;35061;47.664;9.166;2023-09-19T10:51:56;101720.88;;;20.06;73.21
18755;BME280;35061;47.664;9.166;2023-09-19T10:54:30;101705.28;;;20.09;73.15
18755;BME280;35061;47.664;9.166;2023-09-19T10:57:00;101716.01;;;20.20;73.12
18755;BME280;35061;47.664;9.166;2023-09-19T10:59:33;101692.44;;;20.29;73.57
18755;BME280;35061;47.664;9.166;2023-09-19T11:02:18;101705.77;;;20.44;74.27
18755;BME280;35061;47.664;9.166;2023-09-19T11:04:46;101712.58;;;20.52;74.14
18755;BME280;35061;47.664;9.166;2023-09-19T11:07:16;101703.55;;;20.56;73.88
18755;BME280;35061;47.664;9.166;2023-09-19T11:09:55;101701.07;;;20.66;73.45
18755;BME280;35061;47.664;9.166;2023-09-19T11:14:57;101695.67;;;20.75;73.11
18755;BME280;35061;47.664;9.166;2023-09-19T11:17:39;101705.35;;;20.89;73.19
18755;BME280;35061;47.664;9.166;2023-09-19T11:20:16;101698.58;;;21.00;73.12
18755;BME280;35061;47.664;9.166;2023-09-19T11:30:51;101689.33;;;21.02;68.74
18755;BME280;35061;47.664;9.166;2023-09-19T11:33:30;101687.10;;;21.08;69.21
18755;BME280;35061;47.664;9.166;2023-09-19T11:36:15;101670.20;;;21.07;68.09
18755;BME280;35061;47.664;9.166;2023-09-19T11:46:28;101680.07;;;21.23;68.92
18755;BME280;35061;47.664;9.166;2023-09-19T11:49:07;101682.10;;;21.28;69.50
18755;BME280;35061;47.664;9.166;2023-09-19T11:51:43;101687.53;;;21.37;69.34
18755;BME280;35061;47.664;9.166;2023-09-19T11:54:14;101678.96;;;21.45;69.51
18755;BME280;35061;47.664;9.166;2023-09-19T11:56:45;101674.09;;;21.53;69.47
18755;BME280;35061;47.664;9.166;2023-09-19T11:59:24;101670.52;;;21.60;68.93
18755;BME280;35061;47.664;9.166;2023-09-19T12:01:54;101671.73;;;21.71;68.73
18755;BME280;35061;47.664;9.166;2023-09-19T12:04:42;101661.01;;;21.79;68.46
18755;BME280;35061;47.664;9.166;2023-09-19T12:07:13;101657.45;;;21.86;67.06
18755;BME280;35061;47.664;9.166;2023-09-19T12:09:48;101659.27;;;21.89;66.69
18755;BME280;35061;47.664;9.166;2023-09-19T12:12:22;101659.27;;;21.89;67.32
18755;BME280;35061;47.664;9.166;2023-09-19T12:14:51;101658.33;;;21.81;64.17
18755;BME280;35061;47.664;9.166;2023-09-19T12:17:19;101656.27;;;21.76;65.40
18755;BME280;35061;47.664;9.166;2023-09-19T12:19:55;101645.73;;;21.73;65.67
18755;BME280;35061;47.664;9.166;2023-09-19T12:22:23;101651.04;;;21.74;64.53
18755;BME280;35061;47.664;9.166;2023-09-19T12:24:53;101651.79;;;21.75;65.22
18755;BME280;35061;47.664;9.166;2023-09-19T12:27:22;101646.20;;;21.77;65.23
18755;BME280;35061;47.664;9.166;2023-09-19T12:29:50;101646.13;;;21.83;65.48
18755;BME280;35061;47.664;9.166;2023-09-19T12:32:36;101644.79;;;21.84;65.11
18755;BME280;35061;47.664;9.166;2023-09-19T12:35:08;101645.25;;;21.88;66.10
18755;BME280;35061;47.664;9.166;2023-09-19T12:37:45;101633.48;;;21.94;66.56
18755;BME280;35061;47.664;9.166;2023-09-19T12:40:21;101640.87;;;21.95;65.38
18755;BME280;35061;47.664;9.166;2023-09-19T12:42:57;101631.48;;;22.02;65.81
18755;BME280;35061;47.664;9.166;2023-09-19T12:45:31;101631.71;;;22.04;65.92
18755;BME280;35061;47.664;9.166;2023-09-19T12:48:18;101624.32;;;22.03;65.73
18755;BME280;35061;47.664;9.166;2023-09-19T12:53:28;101626.55;;;21.97;64.86
18755;BME280;35061;47.664;9.166;2023-09-19T12:56:00;101617.32;;;21.93;65.09
18755;BME280;35061;47.664;9.166;2023-09-19T12:58:28;101613.49;;;21.84;64.24
18755;BME280;35061;47.664;9.166;2023-09-19T13:00:58;101606.63;;;21.82;64.74
18755;BME280;35061;47.664;9.166;2023-09-19T13:03:27;101607.74;;;21.79;65.01
18755;BME280;35061;47.664;9.166;2023-09-19T13:06:02;101603.49;;;21.80;65.20
18755;BME280;35061;47.664;9.166;2023-09-19T13:08:34;101600.91;;;21.76;64.91
18755;BME280;35061;47.664;9.166;2023-09-19T13:13:42;101600.45;;;21.72;65.01
18755;BME280;35061;47.664;9.166;2023-09-19T13:16:16;101595.22;;;21.65;64.34
18755;BME280;35061;47.664;9.166;2023-09-19T13:18:52;101592.17;;;21.57;64.60
18755;BME280;35061;47.664;9.166;2023-09-19T13:21:32;101586.23;;;21.49;64.46
18755;BME280;35061;47.664;9.166;2023-09-19T13:24:24;101586.84;;;21.42;63.91
18755;BME280;35061;47.664;9.166;2023-09-19T13:26:56;101586.39;;;21.38;64.81
18755;BME280;35061;47.664;9.166;2023-09-19T13:29:24;101581.91;;;21.37;64.96
18755;BME280;35061;47.664;9.166;2023-09-19T13:31:53;101583.25;;;21.36;64.99
18755;BME280;35061;47.664;9.166;2023-09-19T13:34:21;101583.80;;;21.34;64.90
18755;BME280;35061;47.664;9.166;2023-09-19T13:36:49;101586.48;;;21.32;64.72
18755;BME280;35061;47.664;9.166;2023-09-19T13:39:17;101580.44;;;21.30;64.42
18755;BME280;35061;47.664;9.166;2023-09-19T13:41:47;101585.90;;;21.33;65.09
18755;BME280;35061;47.664;9.166;2023-09-19T13:44:15;101575.30;;;21.36;64.71
18755;BME280;35061;47.664;9.166;2023-09-19T13:46:45;101566.54;;;21.36;63.39
18755;BME280;35061;47.664;9.166;2023-09-19T13:49:14;101570.73;;;21.41;63.63
18755;BME280;35061;47.664;9.166;2023-09-19T13:51:42;101564.58;;;21.44;63.74